createdAt,value
2023-11-18T00:01:44.856Z,57.51
2023-11-18T00:04:32.425Z,58.97
2023-11-18T00:07:20.433Z,60.41
2023-11-18T00:10:09.871Z,60.91
2023-11-18T00:12:57.402Z,64.85
2023-11-18T00:15:47.419Z,68.28
2023-11-18T00:18:35.655Z,66.75
2023-11-18T00:21:23.451Z,64.76
2023-11-18T00:24:11.061Z,63.54
2023-11-18T00:26:58.964Z,61.83
2023-11-18T00:29:46.576Z,60.30
2023-11-18T00:32:34.592Z,58.13
2023-11-18T00:35:22.410Z,57.12
2023-11-18T00:38:11.602Z,58.33
2023-11-18T00:40:59.775Z,59.33
2023-11-18T00:43:47.672Z,60.61
2023-11-18T00:46:37.292Z,65.33
2023-11-18T00:49:27.320Z,69.09
2023-11-18T00:52:16.148Z,67.41
2023-11-18T00:55:04.603Z,65.56
2023-11-18T00:57:52.200Z,63.53
2023-11-18T01:00:40.294Z,62.40
2023-11-18T01:03:27.992Z,60.99
2023-11-18T01:06:18.748Z,59.57
2023-11-18T01:09:08.769Z,57.03
2023-11-18T01:12:07.759Z,57.11
2023-11-18T01:14:57.157Z,58.65
2023-11-18T01:17:45.696Z,59.96
2023-11-18T01:20:33.737Z,63.91
2023-11-18T01:23:21.799Z,66.86
2023-11-18T01:26:11.073Z,65.85
2023-11-18T01:28:58.913Z,63.95
2023-11-18T01:31:52.211Z,62.52
2023-11-18T01:34:41.250Z,61.73
2023-11-18T01:37:29.485Z,60.70
2023-11-18T01:40:17.274Z,59.00
2023-11-18T01:43:12.521Z,59.75
2023-11-18T01:46:04.263Z,60.54
2023-11-18T01:48:53.513Z,65.81
2023-11-18T01:51:45.118Z,66.78
2023-11-18T01:54:33.443Z,65.25
2023-11-18T01:57:21.234Z,63.30
2023-11-18T02:00:12.340Z,61.88
2023-11-18T02:03:05.658Z,60.51
2023-11-18T02:05:54.066Z,58.82
2023-11-18T02:08:42.802Z,57.59
2023-11-18T02:11:42.827Z,63.58
2023-11-18T02:14:33.096Z,64.95
2023-11-18T02:17:27.376Z,63.65
2023-11-18T02:20:18.037Z,62.29
2023-11-18T02:23:08.664Z,60.77
2023-11-18T02:25:57.183Z,60.10
2023-11-18T02:28:45.070Z,57.88
2023-11-18T02:31:38.998Z,56.02
2023-11-18T02:34:33.468Z,56.80
2023-11-18T02:37:22.738Z,61.11
2023-11-18T02:40:15.981Z,65.53
2023-11-18T02:43:10.579Z,65.58
2023-11-18T02:45:59.509Z,64.01
2023-11-18T02:48:47.591Z,62.29
2023-11-18T02:51:40.475Z,60.96
2023-11-18T02:54:28.379Z,59.70
2023-11-18T02:57:16.233Z,57.45
2023-11-18T03:00:12.904Z,56.37
2023-11-18T03:03:00.885Z,58.31
2023-11-18T03:05:51.071Z,61.47
2023-11-18T03:08:38.938Z,65.80
2023-11-18T03:11:26.680Z,66.41
2023-11-18T03:14:14.598Z,64.77
2023-11-18T03:17:03.364Z,62.94
2023-11-18T03:19:51.879Z,62.04
2023-11-18T03:22:39.793Z,58.17
2023-11-18T03:25:27.643Z,58.25
2023-11-18T03:28:15.803Z,60.14
2023-11-18T03:31:07.441Z,60.80
2023-11-18T03:33:54.996Z,65.93
2023-11-18T03:36:42.875Z,67.21
2023-11-18T03:39:30.659Z,65.41
2023-11-18T03:42:18.420Z,63.21
2023-11-18T03:45:06.893Z,62.08
2023-11-18T03:47:54.850Z,60.92
2023-11-18T03:50:42.955Z,59.10
2023-11-18T03:53:30.791Z,56.70
2023-11-18T03:56:21.685Z,58.51
2023-11-18T04:01:59.327Z,64.87
2023-11-18T04:04:47.457Z,65.30
2023-11-18T04:07:35.833Z,64.34
2023-11-18T04:10:23.866Z,63.23
2023-11-18T04:13:11.633Z,60.37
2023-11-18T04:15:59.192Z,59.53
2023-11-18T04:18:47.148Z,57.00
2023-11-18T04:21:34.844Z,60.64
2023-11-18T04:24:22.631Z,60.28
2023-11-18T04:27:10.408Z,63.60
2023-11-18T04:29:57.970Z,66.66
2023-11-18T04:32:45.552Z,66.63
2023-11-18T04:35:35.840Z,65.23
2023-11-18T04:38:24.016Z,63.22
2023-11-18T04:41:11.958Z,61.01
2023-11-18T04:44:00.026Z,60.16
2023-11-18T04:46:48.045Z,57.85
2023-11-18T04:49:36.324Z,58.45
2023-11-18T04:52:24.422Z,63.22
2023-11-18T04:55:14.746Z,64.16
2023-11-18T04:58:02.568Z,63.77
2023-11-18T05:00:50.030Z,62.44
2023-11-18T05:03:38.230Z,61.29
2023-11-18T05:06:27.092Z,60.20
2023-11-18T05:09:17.469Z,60.06
2023-11-18T05:12:06.069Z,57.75
2023-11-18T05:14:53.898Z,56.53
2023-11-18T05:17:44.185Z,57.26
2023-11-18T05:20:32.085Z,58.96
2023-11-18T05:23:20.162Z,60.64
2023-11-18T05:26:08.256Z,64.52
2023-11-18T05:28:56.424Z,67.27
2023-11-18T05:31:44.920Z,66.42
2023-11-18T05:34:33.055Z,64.89
2023-11-18T05:37:22.779Z,62.45
2023-11-18T05:40:12.861Z,61.87
2023-11-18T05:43:03.551Z,60.62
2023-11-18T05:46:16.258Z,57.84
2023-11-18T05:49:09.550Z,57.37
2023-11-18T05:51:57.587Z,58.43
2023-11-18T05:54:45.751Z,60.33
2023-11-18T05:57:33.448Z,63.15
2023-11-18T06:00:27.729Z,66.71
2023-11-18T06:03:21.294Z,65.85
2023-11-18T06:06:10.915Z,64.42
2023-11-18T06:09:00.414Z,62.18
2023-11-18T06:11:50.920Z,60.56
2023-11-18T06:14:39.933Z,57.66
2023-11-18T06:17:29.293Z,57.42
2023-11-18T06:20:18.517Z,58.63
2023-11-18T06:23:07.919Z,59.41
2023-11-18T06:25:55.642Z,60.80
2023-11-18T06:28:45.841Z,64.79
2023-11-18T06:31:34.178Z,67.88
2023-11-18T06:34:22.065Z,66.14
2023-11-18T06:37:09.680Z,63.73
2023-11-18T06:39:58.134Z,62.47
2023-11-18T06:42:49.757Z,60.80
2023-11-18T06:45:38.677Z,59.32
2023-11-18T06:48:26.352Z,57.01
2023-11-18T06:51:17.799Z,57.81
2023-11-18T06:54:13.171Z,60.07
2023-11-18T06:57:01.134Z,63.44
2023-11-18T06:59:49.872Z,66.72
2023-11-18T07:02:39.576Z,65.41
2023-11-18T07:05:27.699Z,63.30
2023-11-18T07:08:15.461Z,61.39
2023-11-18T07:11:04.765Z,60.91
2023-11-18T07:13:57.746Z,60.36
2023-11-18T07:16:45.909Z,59.60
2023-11-18T07:19:37.819Z,57.07
2023-11-18T07:22:26.560Z,56.18
2023-11-18T07:25:14.349Z,58.79
2023-11-18T07:28:02.136Z,59.56
2023-11-18T07:30:49.829Z,62.73
2023-11-18T07:33:38.135Z,65.88
2023-11-18T07:36:27.136Z,65.79
2023-11-18T07:39:25.746Z,63.77
2023-11-18T07:42:15.936Z,62.13
2023-11-18T07:45:18.973Z,60.63
2023-11-18T07:48:08.610Z,57.31
2023-11-18T07:50:58.276Z,56.21
2023-11-18T07:53:46.097Z,57.43
2023-11-18T07:56:33.863Z,60.46
2023-11-18T07:59:23.219Z,65.23
2023-11-18T08:02:12.100Z,65.90
2023-11-18T08:04:59.845Z,63.65
2023-11-18T08:07:47.727Z,62.35
2023-11-18T08:10:39.605Z,60.22
2023-11-18T08:13:27.570Z,56.94
2023-11-18T08:16:16.103Z,56.16
2023-11-18T08:19:03.959Z,58.32
2023-11-18T08:21:51.664Z,59.80
2023-11-18T08:24:39.862Z,60.26
2023-11-18T08:27:27.823Z,63.89
2023-11-18T08:30:19.206Z,67.07
2023-11-18T08:33:10.381Z,65.20
2023-11-18T08:35:58.179Z,62.83
2023-11-18T08:38:48.475Z,60.79
2023-11-18T08:41:36.762Z,60.11
2023-11-18T08:44:24.931Z,57.74
2023-11-18T08:47:14.016Z,56.77
2023-11-18T08:50:13.347Z,58.09
2023-11-18T08:53:05.497Z,59.49
2023-11-18T08:55:55.704Z,63.97
2023-11-18T08:58:47.089Z,66.54
2023-11-18T09:01:35.315Z,64.07
2023-11-18T09:04:28.736Z,62.36
2023-11-18T09:07:17.627Z,60.16
2023-11-18T09:10:06.519Z,58.38
2023-11-18T09:12:57.527Z,56.21
2023-11-18T09:15:46.322Z,59.07
2023-11-18T09:18:37.294Z,62.00
2023-11-18T09:21:31.080Z,64.31
2023-11-18T09:24:21.077Z,63.32
2023-11-18T09:27:10.595Z,60.34
2023-11-18T09:29:58.304Z,58.68
2023-11-18T09:32:48.962Z,57.32
2023-11-18T09:35:36.746Z,56.19
2023-11-18T09:38:24.405Z,57.28
2023-11-18T09:41:12.692Z,64.84
2023-11-18T09:44:03.615Z,66.69
2023-11-18T09:47:05.430Z,63.88
2023-11-18T09:49:58.329Z,61.89
2023-11-18T09:52:53.287Z,57.47
2023-11-18T09:56:39.817Z,55.86
2023-11-18T09:59:46.157Z,55.75
2023-11-18T10:02:34.809Z,62.35
2023-11-18T10:05:24.370Z,65.54
2023-11-18T10:08:12.291Z,63.66
2023-11-18T10:11:10.774Z,61.92
2023-11-18T10:13:58.985Z,60.99
2023-11-18T10:16:48.603Z,57.67
2023-11-18T10:19:58.262Z,57.29
2023-11-18T10:22:46.788Z,60.69
2023-11-18T10:25:35.993Z,62.49
2023-11-18T10:28:31.575Z,64.13
2023-11-18T10:31:20.323Z,63.31
2023-11-18T10:34:08.656Z,61.55
2023-11-18T10:37:04.416Z,60.02
2023-11-18T10:39:53.748Z,56.36
2023-11-18T10:42:44.230Z,55.77
2023-11-18T10:45:33.934Z,57.00
2023-11-18T10:48:22.423Z,58.84
2023-11-18T10:51:15.378Z,62.66
2023-11-18T10:54:05.386Z,65.65
2023-11-18T10:56:57.897Z,64.51
2023-11-18T11:00:19.682Z,61.99
2023-11-18T11:03:07.465Z,60.01
2023-11-18T11:05:55.777Z,57.42
2023-11-18T11:08:43.453Z,60.40
2023-11-18T11:11:47.905Z,61.53
2023-11-18T11:14:44.715Z,62.69
2023-11-18T11:17:37.842Z,62.07
2023-11-18T11:20:27.639Z,60.59
2023-11-18T11:23:54.958Z,58.36
2023-11-18T11:27:08.692Z,58.50
2023-11-18T11:30:11.968Z,61.37
2023-11-18T11:33:10.095Z,66.03
2023-11-18T11:36:03.502Z,66.22
2023-11-18T11:38:57.260Z,63.90
2023-11-18T11:41:52.764Z,62.94
2023-11-18T11:44:43.618Z,61.01
2023-11-18T11:47:37.881Z,60.71
2023-11-18T11:50:34.351Z,58.11
2023-11-18T11:53:28.326Z,58.14
2023-11-18T11:56:22.516Z,62.16
2023-11-18T11:59:13.835Z,63.92
2023-11-18T12:02:05.862Z,63.32
2023-11-18T12:04:59.446Z,60.81
2023-11-18T12:07:49.653Z,59.78
2023-11-18T12:10:39.040Z,57.12
2023-11-18T12:13:27.708Z,57.19
2023-11-18T12:16:22.045Z,60.02
2023-11-18T12:19:47.959Z,63.57
2023-11-18T12:23:15.817Z,65.69
2023-11-18T12:26:41.496Z,63.66
2023-11-18T12:29:37.808Z,61.04
2023-11-18T12:33:13.001Z,59.66
2023-11-18T12:36:34.336Z,57.49
2023-11-18T12:40:26.093Z,58.48
2023-11-18T12:43:19.052Z,63.49
2023-11-18T12:46:28.854Z,65.43
2023-11-18T12:49:20.965Z,64.26
2023-11-18T12:52:16.073Z,62.67
2023-11-18T12:55:04.116Z,61.26
2023-11-18T12:57:55.651Z,60.69
2023-11-18T13:00:44.557Z,58.08
2023-11-18T13:03:35.755Z,56.46
2023-11-18T13:06:28.141Z,57.83
2023-11-18T13:09:26.497Z,59.83
2023-11-18T13:12:21.554Z,64.25
2023-11-18T13:15:11.838Z,65.80
2023-11-18T13:18:00.330Z,64.61
2023-11-18T13:20:59.267Z,62.66
2023-11-18T13:23:54.109Z,61.10
2023-11-18T13:26:43.370Z,59.70
2023-11-18T13:29:33.241Z,57.18
2023-11-18T13:32:27.953Z,59.03
2023-11-18T13:35:20.509Z,62.71
2023-11-18T13:38:08.701Z,63.81
2023-11-18T13:40:58.143Z,63.14
2023-11-18T13:43:48.622Z,61.96
2023-11-18T13:46:41.629Z,60.60
2023-11-18T13:49:32.705Z,59.36
2023-11-18T13:52:22.205Z,57.10
2023-11-18T13:55:18.407Z,57.62
2023-11-18T13:58:07.732Z,59.79
2023-11-18T14:00:57.223Z,60.88
2023-11-18T14:03:45.688Z,65.49
2023-11-18T14:06:33.482Z,66.91
2023-11-18T14:09:22.518Z,65.61
2023-11-18T14:12:10.774Z,64.80
2023-11-18T14:14:58.588Z,63.24
2023-11-18T14:17:47.647Z,61.77
2023-11-18T14:20:36.857Z,61.46
2023-11-18T14:23:24.851Z,60.36
2023-11-18T14:26:12.610Z,57.55
2023-11-18T14:29:01.015Z,57.34
2023-11-18T14:31:48.901Z,59.09
2023-11-18T14:34:36.725Z,61.21
2023-11-18T14:37:24.432Z,66.31
2023-11-18T14:40:17.290Z,67.85
2023-11-18T14:43:05.992Z,65.78
2023-11-18T14:45:54.206Z,64.02
2023-11-18T14:48:42.327Z,62.16
2023-11-18T14:51:30.866Z,61.32
2023-11-18T14:54:19.175Z,60.33
2023-11-18T14:57:06.893Z,59.79
2023-11-18T14:59:54.918Z,57.54
2023-11-18T15:02:42.633Z,57.90
2023-11-18T15:05:32.298Z,60.18
2023-11-18T15:08:20.127Z,63.19
2023-11-18T15:11:08.371Z,67.13
2023-11-18T15:13:57.705Z,65.82
2023-11-18T15:16:48.180Z,64.44
2023-11-18T15:19:36.744Z,62.90
2023-11-18T15:22:24.560Z,61.99
2023-11-18T15:25:14.049Z,61.08
2023-11-18T15:28:02.275Z,60.27
2023-11-18T15:30:50.114Z,59.50
2023-11-18T15:33:38.704Z,56.85
2023-11-18T15:36:26.813Z,57.66
2023-11-18T15:39:16.124Z,59.45
2023-11-18T15:42:06.924Z,60.31
2023-11-18T15:44:57.120Z,64.18
2023-11-18T15:47:47.488Z,66.89
2023-11-18T15:50:38.993Z,66.42
2023-11-18T15:53:29.134Z,64.71
2023-11-18T15:56:16.928Z,63.10
2023-11-18T15:59:05.051Z,62.11
2023-11-18T16:01:53.404Z,61.31
2023-11-18T16:04:41.166Z,59.52
2023-11-18T16:07:28.882Z,56.65
2023-11-18T16:10:22.806Z,57.49
2023-11-18T16:13:10.730Z,59.94
2023-11-18T16:15:58.595Z,62.90
2023-11-18T16:18:46.840Z,65.23
2023-11-18T16:21:38.922Z,64.80
2023-11-18T16:24:27.142Z,62.76
2023-11-18T16:27:16.100Z,61.17
2023-11-18T16:30:08.790Z,60.18
2023-11-18T16:33:05.643Z,59.55
2023-11-18T16:35:54.372Z,57.06
2023-11-18T16:38:42.718Z,57.77
2023-11-18T16:41:43.063Z,59.86
2023-11-18T16:44:34.335Z,61.53
2023-11-18T16:47:23.290Z,64.93
2023-11-18T16:50:13.182Z,68.27
2023-11-18T16:53:01.247Z,66.53
2023-11-18T16:55:48.980Z,64.63
2023-11-18T16:58:36.644Z,62.89
2023-11-18T17:01:25.823Z,61.57
2023-11-18T17:04:13.674Z,60.75
2023-11-18T17:07:02.211Z,59.89
2023-11-18T17:09:50.049Z,57.32
2023-11-18T17:12:48.977Z,57.80
2023-11-18T17:15:36.421Z,59.49
2023-11-18T17:18:24.060Z,63.63
2023-11-18T17:21:11.935Z,66.64
2023-11-18T17:23:59.659Z,64.80
2023-11-18T17:26:47.907Z,62.89
2023-11-18T17:29:35.528Z,61.71
2023-11-18T17:32:23.969Z,60.85
2023-11-18T17:35:16.297Z,59.97
2023-11-18T17:38:07.914Z,57.09
2023-11-18T17:40:56.796Z,56.51
2023-11-18T17:43:44.695Z,57.26
2023-11-18T17:46:32.651Z,59.60
2023-11-18T17:49:23.233Z,62.82
2023-11-18T17:52:11.307Z,65.90
2023-11-18T17:54:59.390Z,65.67
2023-11-18T17:57:48.280Z,64.64
2023-11-18T18:00:37.412Z,62.88
2023-11-18T18:03:25.349Z,61.48
2023-11-18T18:06:14.207Z,60.46
2023-11-18T18:09:01.823Z,59.81
2023-11-18T18:11:49.633Z,57.02
2023-11-18T18:14:37.730Z,57.03
2023-11-18T18:17:25.868Z,57.97
2023-11-18T18:20:15.129Z,59.27
2023-11-18T18:23:02.928Z,63.54
2023-11-18T18:25:50.915Z,66.19
2023-11-18T18:28:38.543Z,65.67
2023-11-18T18:31:26.192Z,64.02
2023-11-18T18:34:14.365Z,62.23
2023-11-18T18:37:02.105Z,60.87
2023-11-18T18:39:53.826Z,59.70
2023-11-18T18:42:41.758Z,57.77
2023-11-18T18:45:32.004Z,56.66
2023-11-18T18:48:20.121Z,58.08
2023-11-18T18:51:08.281Z,59.58
2023-11-18T18:53:56.055Z,61.12
2023-11-18T18:56:43.888Z,65.51
2023-11-18T18:59:32.437Z,67.40
2023-11-18T19:02:20.456Z,67.13
2023-11-18T19:05:10.047Z,65.43
2023-11-18T19:07:59.155Z,63.46
2023-11-18T19:10:48.751Z,62.40
2023-11-18T19:13:36.842Z,62.01
2023-11-18T19:16:24.981Z,61.30
2023-11-18T19:19:13.014Z,60.23
2023-11-18T19:22:01.937Z,58.87
2023-11-18T19:24:50.998Z,57.71
2023-11-18T19:27:44.051Z,59.20
2023-11-18T19:30:33.012Z,62.73
2023-11-18T19:33:21.167Z,66.67
2023-11-18T19:36:13.133Z,65.88
2023-11-18T19:39:02.190Z,64.83
2023-11-18T19:41:51.522Z,63.43
2023-11-18T19:44:39.944Z,62.78
2023-11-18T19:47:31.226Z,62.60
2023-11-18T19:50:27.302Z,61.97
2023-11-18T19:53:15.925Z,60.67
2023-11-18T19:56:04.358Z,60.17
2023-11-18T19:58:52.965Z,60.17
2023-11-18T20:01:40.986Z,60.13
2023-11-18T20:04:29.908Z,59.22
2023-11-18T20:07:19.615Z,57.19
2023-11-18T20:10:10.171Z,58.37
2023-11-18T20:12:57.813Z,62.20
2023-11-18T20:15:46.716Z,66.22
2023-11-18T20:18:34.495Z,66.19
2023-11-18T20:21:22.469Z,64.85
2023-11-18T20:24:10.734Z,63.10
2023-11-18T20:26:59.152Z,62.24
2023-11-18T20:29:46.712Z,61.43
2023-11-18T20:32:35.339Z,60.36
2023-11-18T20:35:23.084Z,59.64
2023-11-18T20:38:13.478Z,57.26
2023-11-18T20:41:01.528Z,57.25
2023-11-18T20:43:49.209Z,59.11
2023-11-18T20:46:37.139Z,61.09
2023-11-18T20:49:26.194Z,66.48
2023-11-18T20:52:15.115Z,67.11
2023-11-18T20:55:02.969Z,65.75
2023-11-18T20:57:51.191Z,64.31
2023-11-18T21:00:38.938Z,63.23
2023-11-18T21:03:26.785Z,62.29
2023-11-18T21:06:21.352Z,60.63
2023-11-18T21:09:09.943Z,59.18
2023-11-18T21:12:17.212Z,56.95
2023-11-18T21:15:09.111Z,58.19
2023-11-18T21:17:56.828Z,62.60
2023-11-18T21:20:45.980Z,65.04
2023-11-18T21:23:33.929Z,64.51
2023-11-18T21:26:23.998Z,62.90
2023-11-18T21:29:13.134Z,61.49
2023-11-18T21:32:00.664Z,60.37
2023-11-18T21:34:48.952Z,59.63
2023-11-18T21:37:37.480Z,57.54
2023-11-18T21:40:27.974Z,56.46
2023-11-18T21:43:15.900Z,58.25
2023-11-18T21:46:04.024Z,60.84
2023-11-18T21:48:51.868Z,65.14
2023-11-18T21:51:39.702Z,66.39
2023-11-18T21:54:32.113Z,65.68
2023-11-18T21:57:19.695Z,64.67
2023-11-18T22:00:12.437Z,62.78
2023-11-18T22:03:04.301Z,61.21
2023-11-18T22:05:51.988Z,60.43
2023-11-18T22:08:40.098Z,57.80
2023-11-18T22:14:24.524Z,58.30
2023-11-18T22:17:12.698Z,62.14
2023-11-18T22:20:01.574Z,65.64
2023-11-18T22:22:50.504Z,65.73
2023-11-18T22:25:38.292Z,64.45
2023-11-18T22:28:25.733Z,63.37
2023-11-18T22:31:13.690Z,62.28
2023-11-18T22:34:01.322Z,60.65
2023-11-18T22:36:49.777Z,60.19
2023-11-18T22:39:37.668Z,59.98
2023-11-18T22:42:26.101Z,59.55
2023-11-18T22:45:17.758Z,56.97
2023-11-18T22:48:07.732Z,57.79
2023-11-18T22:50:55.083Z,61.12
2023-11-18T22:53:43.770Z,66.01
2023-11-18T22:56:32.086Z,66.52
2023-11-18T22:59:21.186Z,64.09
2023-11-18T23:02:12.116Z,61.73
2023-11-18T23:05:07.243Z,60.31
2023-11-18T23:07:58.913Z,59.94
2023-11-18T23:10:47.712Z,58.06
2023-11-18T23:13:36.886Z,58.46
2023-11-18T23:16:24.922Z,59.98
2023-11-18T23:19:13.014Z,61.24
2023-11-18T23:22:07.883Z,66.16
2023-11-18T23:24:56.042Z,67.81
2023-11-18T23:27:45.303Z,65.65
2023-11-18T23:30:33.072Z,63.80
2023-11-18T23:33:20.518Z,61.81
2023-11-18T23:36:08.935Z,60.55
2023-11-18T23:39:02.686Z,60.02
2023-11-18T23:41:51.015Z,58.21
2023-11-18T23:44:38.419Z,57.19
2023-11-18T23:47:25.987Z,58.83
2023-11-18T23:50:13.726Z,60.47
2023-11-18T23:53:02.102Z,65.14
2023-11-18T23:55:49.877Z,67.75
2023-11-18T23:58:37.383Z,66.88
